Log in Register

Login to your account

Username *
Password *
Remember Me

Create an account

Fields marked with an asterisk (*) are required.
Name *
Username *
Password *
Verify password *
Email *
Verify email *

Suite à la levée progressive des restrictions sanitaires, l'aéroclub reprend son activité dans sa globalité.

 

Le secrétariat vous accueille dans le respect des gestes barrières selon les horaires définis dans la rubrique contact https://www.aeroclub-savoie.com/index.php?option=com_content&view=article&id=5&Itemid=123&lang=fr

 

Les vols découverte peuvent à nouveau être effectués, sans jauge, sous réserve du port du masque en tous temps. Contacter le secrétariat pour prendre rdv, minimum 4 jour à l'avance. Les vols peuvent être effectués tous les jours sous réserve de disponibilité avion, pilote et météo.

Vous avez un bon cadeau ayant expiré durant les confinements, n'hésitez pas à nous contacter.

Merci

Nous contacter

 Téléphone : +33 (0)4 79 54 41 81

Coordonnées détaillées et accès : cliquez ici

 
LFLB °C
    Ferienhaus Ostsee
[source: ADDS]
METAR
LFLB 181530Z AUTO VRB04KT 9999 FEW064 32/19 Q1015 TEMPO VRB15G25KT FEW080CB =
TAF LFLB 181400Z 1815/1915 18007KT CAVOK PROB30 TEMPO 1815/1819 VRB15G25KT FEW080CB BECMG 1820/1823 VRB02KT
TAF
TAF LFLB 181400Z 1815/1915 18007KT CAVOK PROB30 TEMPO 1815/1819 VRB15G25KT FEW080CB BECMG 1820/1823 VRB02KT =
SR / SS: 03:46 / 19:28 UTC (Lever/Coucher du soleil le 2021-06-18)
JSN Boot template designed by JoomlaShine.com